createdAt,value
2023-03-01T00:00:54.660Z,100653.00
2023-03-01T00:02:27.850Z,100651.00
2023-03-01T00:04:02.038Z,100649.00
2023-03-01T00:05:34.267Z,100645.00
2023-03-01T00:07:08.774Z,100644.00
2023-03-01T00:08:42.526Z,100645.00
2023-03-01T00:10:16.028Z,100649.00
2023-03-01T00:11:50.409Z,100660.00
2023-03-01T00:13:23.792Z,100655.00
2023-03-01T00:14:56.929Z,100665.00
2023-03-01T00:16:34.524Z,100657.00
2023-03-01T00:18:08.342Z,100660.00
2023-03-01T00:19:41.648Z,100664.00
2023-03-01T00:21:14.168Z,100662.00
2023-03-01T00:22:48.668Z,100643.00
2023-03-01T00:24:21.824Z,100642.00
2023-03-01T00:25:55.070Z,100642.00
2023-03-01T00:27:28.552Z,100638.00
2023-03-01T00:29:02.021Z,100637.00
2023-03-01T00:30:35.479Z,100629.00
2023-03-01T00:32:09.037Z,100628.00
2023-03-01T00:33:41.780Z,100643.00
2023-03-01T00:35:15.098Z,100631.00
2023-03-01T00:36:48.458Z,100625.00
2023-03-01T00:38:23.381Z,100633.00
2023-03-01T00:39:55.626Z,100624.00
2023-03-01T00:41:29.519Z,100627.00
2023-03-01T00:43:03.841Z,100626.00
2023-03-01T00:44:37.110Z,100629.00
2023-03-01T00:46:13.544Z,100641.00
2023-03-01T00:47:46.762Z,100628.00
2023-03-01T00:49:20.204Z,100632.00
2023-03-01T00:50:52.428Z,100632.00
2023-03-01T00:52:25.629Z,100630.00
2023-03-01T00:54:03.591Z,100630.00
2023-03-01T00:55:39.045Z,100625.00
2023-03-01T00:57:12.747Z,100615.00
2023-03-01T00:58:45.975Z,100611.00
2023-03-01T01:00:21.357Z,100625.00
2023-03-01T01:01:55.405Z,100617.00
2023-03-01T01:03:29.415Z,100620.00
2023-03-01T01:05:02.579Z,100621.00
2023-03-01T01:06:39.174Z,100617.00
2023-03-01T01:08:12.294Z,100617.00
2023-03-01T01:09:46.785Z,100611.00
2023-03-01T01:11:21.137Z,100622.00
2023-03-01T01:12:54.446Z,100618.00
2023-03-01T01:14:27.567Z,100611.00
2023-03-01T01:16:02.547Z,100616.00
2023-03-01T01:17:35.667Z,100605.00
2023-03-01T01:19:09.351Z,100614.00
2023-03-01T01:20:42.442Z,100595.00
2023-03-01T01:22:15.656Z,100602.00
2023-03-01T01:23:49.748Z,100601.00
2023-03-01T01:25:26.069Z,100592.00
2023-03-01T01:26:59.540Z,100603.00
2023-03-01T01:28:32.619Z,100592.00
2023-03-01T01:30:07.520Z,100592.00
2023-03-01T01:31:43.658Z,100580.00
2023-03-01T01:33:16.001Z,100577.00
2023-03-01T01:34:49.613Z,100587.00
2023-03-01T01:36:23.607Z,100580.00
2023-03-01T01:37:55.876Z,100571.00
2023-03-01T01:39:29.271Z,100577.00
2023-03-01T01:41:03.858Z,100569.00
2023-03-01T01:42:36.984Z,100578.00
2023-03-01T01:44:20.566Z,100587.00
2023-03-01T01:45:59.223Z,100577.00
2023-03-01T01:47:34.363Z,100568.00
2023-03-01T01:49:19.441Z,100565.00
2023-03-01T01:51:00.963Z,100568.00
2023-03-01T01:52:39.963Z,100571.00
2023-03-01T01:54:19.987Z,100588.00
2023-03-01T01:55:59.555Z,100568.00
2023-03-01T01:57:40.777Z,100570.00
2023-03-01T01:59:15.434Z,100570.00
2023-03-01T02:00:51.201Z,100574.00
2023-03-01T02:02:24.612Z,100590.00
2023-03-01T02:03:58.737Z,100587.00
2023-03-01T02:05:47.236Z,100577.00
2023-03-01T02:07:26.522Z,100579.00
2023-03-01T02:09:08.823Z,100576.00
2023-03-01T02:10:44.192Z,100574.00
2023-03-01T02:12:21.714Z,100567.00
2023-03-01T02:13:57.878Z,100573.00
2023-03-01T02:15:34.577Z,100570.00
2023-03-01T02:17:08.311Z,100583.00
2023-03-01T02:18:44.595Z,100580.00
2023-03-01T02:20:27.650Z,100571.00
2023-03-01T02:22:13.301Z,100572.00
2023-03-01T02:23:46.646Z,100571.00
2023-03-01T02:25:36.285Z,100570.00
2023-03-01T02:27:10.868Z,100556.00
2023-03-01T02:28:46.743Z,100561.00
2023-03-01T02:30:22.330Z,100559.00
2023-03-01T02:31:58.980Z,100548.00
2023-03-01T02:33:37.009Z,100545.00
2023-03-01T02:35:16.651Z,100552.00
2023-03-01T02:36:54.903Z,100560.00
2023-03-01T02:38:28.974Z,100554.00
2023-03-01T02:40:12.696Z,100554.00
2023-03-01T02:41:51.816Z,100565.00
2023-03-01T02:43:30.410Z,100559.00
2023-03-01T02:45:06.361Z,100549.00
2023-03-01T02:46:46.220Z,100555.00
2023-03-01T02:48:18.632Z,100551.00
2023-03-01T02:49:51.776Z,100549.00
2023-03-01T02:51:47.160Z,100550.00
2023-03-01T02:53:31.789Z,100544.00
2023-03-01T02:55:10.609Z,100550.00
2023-03-01T02:56:49.373Z,100545.00
2023-03-01T02:58:24.385Z,100551.00
2023-03-01T03:00:02.390Z,100556.00
2023-03-01T03:01:39.220Z,100553.00
2023-03-01T03:03:18.833Z,100543.00
2023-03-01T03:04:52.759Z,100552.00
2023-03-01T03:06:26.915Z,100546.00
2023-03-01T03:08:04.734Z,100543.00
2023-03-01T03:09:43.457Z,100545.00
2023-03-01T03:11:16.725Z,100546.00
2023-03-01T03:12:54.949Z,100539.00
2023-03-01T03:14:30.553Z,100543.00
2023-03-01T03:16:07.644Z,100536.00
2023-03-01T03:17:46.487Z,100529.00
2023-03-01T03:19:22.356Z,100524.00
2023-03-01T03:20:56.933Z,100530.00
2023-03-01T03:22:30.958Z,100535.00
2023-03-01T03:24:06.095Z,100532.00
2023-03-01T03:25:40.363Z,100540.00
2023-03-01T03:27:14.308Z,100537.00
2023-03-01T03:28:47.964Z,100530.00
2023-03-01T03:30:25.339Z,100532.00
2023-03-01T03:31:59.699Z,100532.00
2023-03-01T03:33:35.545Z,100540.00
2023-03-01T03:35:12.044Z,100543.00
2023-03-01T03:36:45.953Z,100539.00
2023-03-01T03:38:23.085Z,100539.00
2023-03-01T03:39:57.056Z,100530.00
2023-03-01T03:41:31.082Z,100528.00
2023-03-01T03:43:05.184Z,100535.00
2023-03-01T03:44:39.686Z,100541.00
2023-03-01T03:46:13.267Z,100537.00
2023-03-01T03:47:47.456Z,100522.00
2023-03-01T03:49:22.718Z,100521.00
2023-03-01T03:50:58.569Z,100511.00
2023-03-01T03:52:31.483Z,100516.00
2023-03-01T03:54:05.660Z,100504.00
2023-03-01T03:55:40.366Z,100517.00
2023-03-01T03:57:14.518Z,100514.00
2023-03-01T03:58:48.670Z,100508.00
2023-03-01T04:00:25.028Z,100500.00
2023-03-01T04:01:58.939Z,100508.00
2023-03-01T04:03:36.055Z,100505.00
2023-03-01T04:05:15.300Z,100498.00
2023-03-01T04:06:49.554Z,100514.00
2023-03-01T04:08:25.533Z,100507.00
2023-03-01T04:09:58.681Z,100511.00
2023-03-01T04:11:32.557Z,100513.00
2023-03-01T04:13:06.843Z,100514.00
2023-03-01T04:14:40.845Z,100510.00
2023-03-01T04:16:15.021Z,100517.00
2023-03-01T04:17:48.491Z,100523.00
2023-03-01T04:19:22.446Z,100513.00
2023-03-01T04:20:57.722Z,100522.00
2023-03-01T04:22:33.072Z,100519.00
2023-03-01T04:24:07.965Z,100516.00
2023-03-01T04:25:43.436Z,100511.00
2023-03-01T04:27:17.438Z,100509.00
2023-03-01T04:28:51.710Z,100505.00
2023-03-01T04:30:26.512Z,100507.00
2023-03-01T04:32:00.643Z,100521.00
2023-03-01T04:33:33.688Z,100522.00
2023-03-01T04:35:08.505Z,100503.00
2023-03-01T04:36:45.804Z,100496.00
2023-03-01T04:38:22.425Z,100496.00
2023-03-01T04:39:56.345Z,100506.00
2023-03-01T04:41:30.249Z,100503.00
2023-03-01T04:43:04.223Z,100506.00
2023-03-01T04:44:38.197Z,100517.00
2023-03-01T04:46:15.902Z,100512.00
2023-03-01T04:47:50.178Z,100509.00
2023-03-01T04:49:24.158Z,100510.00
2023-03-01T04:50:58.159Z,100504.00
2023-03-01T04:52:33.491Z,100509.00
2023-03-01T04:54:09.829Z,100505.00
2023-03-01T04:55:43.690Z,100510.00
2023-03-01T04:57:17.539Z,100506.00
2023-03-01T04:58:52.627Z,100511.00
2023-03-01T05:00:26.561Z,100511.00
2023-03-01T05:02:01.473Z,100506.00
2023-03-01T05:03:35.405Z,100505.00
2023-03-01T05:05:09.836Z,100509.00
2023-03-01T05:06:43.865Z,100504.00
2023-03-01T05:08:19.973Z,100505.00
2023-03-01T05:09:55.100Z,100496.00
2023-03-01T05:11:32.948Z,100506.00
2023-03-01T05:13:07.686Z,100504.00
2023-03-01T05:14:41.831Z,100497.00
2023-03-01T05:16:16.123Z,100504.00
2023-03-01T05:17:49.818Z,100506.00
2023-03-01T05:19:24.447Z,100505.00
2023-03-01T05:21:05.906Z,100504.00
2023-03-01T05:22:40.088Z,100510.00
2023-03-01T05:24:15.666Z,100511.00
2023-03-01T05:25:50.220Z,100501.00
2023-03-01T05:27:23.253Z,100501.00
2023-03-01T05:29:00.229Z,100485.00
2023-03-01T05:30:35.324Z,100495.00
2023-03-01T05:32:09.986Z,100489.00
2023-03-01T05:33:44.520Z,100492.00
2023-03-01T05:35:20.462Z,100493.00
2023-03-01T05:36:55.379Z,100499.00
2023-03-01T05:38:29.365Z,100497.00
2023-03-01T05:40:06.584Z,100488.00
2023-03-01T05:41:41.683Z,100487.00
2023-03-01T05:43:19.088Z,100488.00
2023-03-01T05:44:52.962Z,100489.00
2023-03-01T05:46:26.795Z,100490.00
2023-03-01T05:48:01.286Z,100495.00
2023-03-01T05:49:36.522Z,100483.00
2023-03-01T05:51:11.249Z,100494.00
2023-03-01T05:52:44.046Z,100487.00
2023-03-01T05:54:18.814Z,100490.00
2023-03-01T05:55:54.369Z,100493.00
2023-03-01T05:57:30.938Z,100483.00
2023-03-01T05:59:07.276Z,100497.00
2023-03-01T06:00:41.305Z,100503.00
2023-03-01T06:02:15.218Z,100501.00
2023-03-01T06:03:49.249Z,100502.00
2023-03-01T06:05:23.472Z,100502.00
2023-03-01T06:06:57.354Z,100499.00
2023-03-01T06:08:36.759Z,100500.00
2023-03-01T06:10:10.302Z,100504.00
2023-03-01T06:11:47.566Z,100498.00
2023-03-01T06:13:21.109Z,100494.00
2023-03-01T06:14:53.282Z,100499.00
2023-03-01T06:16:26.420Z,100502.00
2023-03-01T06:18:00.361Z,100500.00
2023-03-01T06:19:32.667Z,100502.00
2023-03-01T06:21:07.545Z,100500.00
2023-03-01T06:22:39.975Z,100501.00
2023-03-01T06:24:13.148Z,100508.00
2023-03-01T06:25:45.374Z,100496.00
2023-03-01T06:27:20.173Z,100508.00
2023-03-01T06:28:53.249Z,100508.00
2023-03-01T06:30:28.269Z,100501.00
2023-03-01T06:32:00.475Z,100502.00
2023-03-01T06:33:33.619Z,100500.00
2023-03-01T06:35:07.837Z,100507.00
2023-03-01T06:36:41.001Z,100501.00
2023-03-01T06:38:15.828Z,100485.00
2023-03-01T06:39:48.956Z,100491.00
2023-03-01T06:41:22.176Z,100486.00
2023-03-01T06:42:56.706Z,100483.00
2023-03-01T06:44:30.123Z,100483.00
2023-03-01T06:46:07.673Z,100485.00
2023-03-01T06:47:40.995Z,100476.00
2023-03-01T06:49:14.241Z,100477.00
2023-03-01T06:50:47.349Z,100471.00
2023-03-01T06:52:20.474Z,100474.00
2023-03-01T06:53:53.707Z,100478.00
2023-03-01T06:55:27.187Z,100476.00
2023-03-01T06:57:00.325Z,100478.00
2023-03-01T06:58:34.887Z,100477.00
2023-03-01T07:00:10.630Z,100476.00
2023-03-01T07:01:44.411Z,100471.00
2023-03-01T07:03:17.497Z,100472.00
2023-03-01T07:04:51.511Z,100484.00
2023-03-01T07:06:25.739Z,100477.00
2023-03-01T07:07:59.014Z,100472.00
2023-03-01T07:09:32.310Z,100478.00
2023-03-01T07:11:06.618Z,100471.00
2023-03-01T07:12:43.049Z,100482.00
2023-03-01T07:14:18.080Z,100473.00
2023-03-01T07:15:51.274Z,100472.00
2023-03-01T07:17:24.473Z,100466.00
2023-03-01T07:18:59.706Z,100464.00
2023-03-01T07:20:33.343Z,100462.00
2023-03-01T07:22:08.592Z,100462.00
2023-03-01T07:23:41.795Z,100465.00
2023-03-01T07:25:14.883Z,100461.00
2023-03-01T07:26:51.185Z,100454.00
2023-03-01T07:28:25.564Z,100450.00
2023-03-01T07:30:00.136Z,100457.00
2023-03-01T07:31:34.005Z,100450.00
2023-03-01T07:33:07.134Z,100454.00
2023-03-01T07:34:40.481Z,100456.00
2023-03-01T07:36:16.723Z,100449.00
2023-03-01T07:37:49.955Z,100445.00
2023-03-01T07:39:23.937Z,100448.00
2023-03-01T07:41:01.987Z,100440.00
2023-03-01T07:42:35.308Z,100432.00
2023-03-01T07:44:08.555Z,100440.00
2023-03-01T07:45:43.108Z,100438.00
2023-03-01T07:47:16.633Z,100441.00
2023-03-01T07:48:50.189Z,100444.00
2023-03-01T07:50:24.679Z,100439.00
2023-03-01T07:51:57.853Z,100438.00
2023-03-01T07:53:32.116Z,100436.00
2023-03-01T07:55:05.984Z,100447.00
2023-03-01T07:56:39.063Z,100447.00
2023-03-01T07:58:12.543Z,100434.00
2023-03-01T07:59:45.798Z,100452.00
2023-03-01T08:01:23.195Z,100448.00
2023-03-01T08:02:56.587Z,100450.00
2023-03-01T08:04:29.777Z,100457.00
2023-03-01T08:06:04.294Z,100452.00
2023-03-01T08:07:37.521Z,100450.00
2023-03-01T08:09:10.676Z,100435.00
2023-03-01T08:10:44.089Z,100442.00
2023-03-01T08:12:17.786Z,100445.00
2023-03-01T08:13:51.978Z,100445.00
2023-03-01T08:15:26.169Z,100450.00
2023-03-01T08:17:00.868Z,100442.00
2023-03-01T08:18:34.411Z,100436.00
2023-03-01T08:20:08.704Z,100435.00
2023-03-01T08:21:42.199Z,100444.00
2023-03-01T08:23:15.636Z,100436.00
2023-03-01T08:24:49.270Z,100431.00
2023-03-01T08:26:23.486Z,100424.00
2023-03-01T08:27:56.624Z,100425.00
2023-03-01T08:29:29.748Z,100417.00
2023-03-01T08:31:03.191Z,100427.00
2023-03-01T08:32:40.658Z,100421.00
2023-03-01T08:34:17.088Z,100415.00
2023-03-01T08:35:50.237Z,100431.00
2023-03-01T08:37:23.338Z,100414.00
2023-03-01T08:38:57.198Z,100410.00
2023-03-01T08:40:30.364Z,100419.00
2023-03-01T08:42:03.678Z,100405.00
2023-03-01T08:43:36.808Z,100418.00
2023-03-01T08:45:11.944Z,100420.00
2023-03-01T08:46:46.419Z,100417.00
2023-03-01T08:48:20.969Z,100420.00
2023-03-01T08:49:54.341Z,100412.00
2023-03-01T08:51:30.020Z,100403.00
2023-03-01T08:53:03.116Z,100413.00
2023-03-01T08:54:36.541Z,100399.00
2023-03-01T08:56:10.427Z,100409.00
2023-03-01T08:57:43.604Z,100400.00
2023-03-01T08:59:19.049Z,100406.00
2023-03-01T09:00:52.189Z,100401.00
2023-03-01T09:02:25.413Z,100407.00
2023-03-01T09:03:59.948Z,100408.00
2023-03-01T09:05:34.515Z,100410.00
2023-03-01T09:07:08.061Z,100416.00
2023-03-01T09:08:44.292Z,100419.00
2023-03-01T09:10:18.516Z,100415.00
2023-03-01T09:11:51.831Z,100409.00
2023-03-01T09:13:25.768Z,100401.00
2023-03-01T09:14:58.949Z,100396.00
2023-03-01T09:16:37.115Z,100391.00
2023-03-01T09:18:10.326Z,100388.00
2023-03-01T09:19:44.929Z,100377.00
2023-03-01T09:21:27.508Z,100388.00
2023-03-01T09:23:11.025Z,100380.00
2023-03-01T09:24:44.545Z,100373.00
2023-03-01T09:26:20.555Z,100373.00
2023-03-01T09:27:54.500Z,100364.00
2023-03-01T09:29:27.860Z,100368.00
2023-03-01T09:31:03.828Z,100370.00
2023-03-01T09:32:37.218Z,100375.00
2023-03-01T09:34:11.891Z,100369.00
2023-03-01T09:35:47.727Z,100361.00
2023-03-01T09:37:20.901Z,100354.00
2023-03-01T09:38:55.519Z,100355.00
2023-03-01T09:40:34.671Z,100354.00
2023-03-01T09:42:07.970Z,100365.00
2023-03-01T09:43:49.131Z,100351.00
2023-03-01T09:45:36.013Z,100355.00
2023-03-01T09:47:18.284Z,100344.00
2023-03-01T09:48:57.313Z,100354.00
2023-03-01T09:50:37.968Z,100346.00
2023-03-01T09:52:27.384Z,100347.00
2023-03-01T09:54:01.752Z,100355.00
2023-03-01T09:55:45.140Z,100353.00
2023-03-01T09:57:28.154Z,100343.00
2023-03-01T09:59:25.400Z,100356.00
2023-03-01T10:01:12.124Z,100360.00
2023-03-01T10:02:50.346Z,100362.00
2023-03-01T10:04:41.977Z,100354.00
2023-03-01T10:06:34.441Z,100357.00
2023-03-01T10:08:37.515Z,100356.00
2023-03-01T10:10:27.174Z,100370.00
2023-03-01T10:12:05.072Z,100368.00
2023-03-01T10:13:49.978Z,100367.00
2023-03-01T10:15:36.965Z,100364.00
2023-03-01T10:17:22.362Z,100359.00
2023-03-01T10:19:02.110Z,100350.00
2023-03-01T10:20:47.928Z,100351.00
2023-03-01T10:22:24.428Z,100342.00
2023-03-01T10:24:12.718Z,100339.00
2023-03-01T10:25:58.717Z,100344.00
2023-03-01T10:27:43.571Z,100346.00
2023-03-01T10:29:17.961Z,100333.00
2023-03-01T10:30:52.838Z,100337.00
2023-03-01T10:32:26.782Z,100333.00
2023-03-01T10:34:02.041Z,100326.00
2023-03-01T10:35:36.978Z,100332.00
2023-03-01T10:37:13.006Z,100316.00
2023-03-01T10:38:53.295Z,100322.00
2023-03-01T10:40:27.968Z,100308.00
2023-03-01T10:42:04.158Z,100310.00
2023-03-01T10:43:48.056Z,100306.00
2023-03-01T10:45:36.540Z,100304.00
2023-03-01T10:47:21.211Z,100311.00
2023-03-01T10:49:16.613Z,100300.00
2023-03-01T10:50:53.085Z,100299.00
2023-03-01T10:52:30.527Z,100299.00
2023-03-01T10:54:06.523Z,100305.00
2023-03-01T10:55:42.124Z,100287.00
2023-03-01T10:57:41.332Z,100284.00
2023-03-01T10:59:29.605Z,100285.00
2023-03-01T11:01:05.777Z,100275.00
2023-03-01T11:02:39.173Z,100277.00
2023-03-01T11:04:15.961Z,100288.00
2023-03-01T11:06:00.507Z,100286.00
2023-03-01T11:07:50.753Z,100285.00
2023-03-01T11:09:28.117Z,100287.00
2023-03-01T11:11:36.548Z,100277.00
2023-03-01T11:13:17.830Z,100280.00
2023-03-01T11:14:54.848Z,100278.00
2023-03-01T11:16:34.244Z,100278.00
2023-03-01T11:18:20.982Z,100276.00
2023-03-01T11:20:33.541Z,100278.00
2023-03-01T11:22:27.211Z,100273.00
2023-03-01T11:24:10.446Z,100279.00
2023-03-01T11:25:51.216Z,100274.00
2023-03-01T11:27:28.115Z,100274.00
2023-03-01T11:29:09.479Z,100274.00
2023-03-01T11:31:05.536Z,100263.00
2023-03-01T11:32:47.330Z,100255.00
2023-03-01T11:34:39.302Z,100263.00
2023-03-01T11:36:34.282Z,100263.00
2023-03-01T11:38:21.651Z,100251.00
2023-03-01T11:40:05.796Z,100258.00
2023-03-01T11:41:43.154Z,100253.00
2023-03-01T11:43:33.316Z,100249.00
2023-03-01T11:45:13.109Z,100246.00
2023-03-01T11:47:11.164Z,100254.00
2023-03-01T11:48:59.818Z,100252.00
2023-03-01T11:50:42.981Z,100241.00
2023-03-01T11:52:31.379Z,100237.00
2023-03-01T11:54:25.490Z,100243.00
2023-03-01T11:56:18.478Z,100243.00
2023-03-01T11:58:25.303Z,100234.00
2023-03-01T12:00:33.990Z,100243.00
2023-03-01T12:02:47.598Z,100234.00
2023-03-01T12:04:56.318Z,100235.00
2023-03-01T12:06:45.957Z,100235.00
2023-03-01T12:08:30.117Z,100224.00
2023-03-01T12:10:24.877Z,100224.00
2023-03-01T12:12:19.801Z,100223.00
2023-03-01T12:14:36.507Z,100218.00
2023-03-01T12:16:39.064Z,100212.00
2023-03-01T12:18:47.197Z,100212.00
2023-03-01T12:20:32.482Z,100209.00
2023-03-01T12:22:31.872Z,100204.00
2023-03-01T12:24:40.960Z,100205.00
2023-03-01T12:26:27.932Z,100206.00
2023-03-01T12:28:52.804Z,100208.00
2023-03-01T12:30:47.324Z,100208.00
2023-03-01T12:32:41.790Z,100208.00
2023-03-01T12:34:36.509Z,100217.00
2023-03-01T12:36:49.615Z,100211.00
2023-03-01T12:38:38.771Z,100197.00
2023-03-01T12:40:39.520Z,100205.00
2023-03-01T12:42:28.785Z,100202.00
2023-03-01T12:44:23.253Z,100195.00
2023-03-01T12:46:17.800Z,100188.00
2023-03-01T12:48:14.643Z,100199.00
2023-03-01T12:49:53.075Z,100186.00
2023-03-01T12:51:32.904Z,100189.00
2023-03-01T12:53:06.022Z,100190.00
2023-03-01T12:54:40.095Z,100198.00
2023-03-01T12:56:18.800Z,100196.00
2023-03-01T12:58:04.344Z,100188.00
2023-03-01T12:59:45.737Z,100189.00
2023-03-01T13:01:34.932Z,100187.00
2023-03-01T13:03:25.646Z,100179.00
2023-03-01T13:05:23.177Z,100179.00
2023-03-01T13:07:23.962Z,100177.00
2023-03-01T13:09:09.877Z,100178.00
2023-03-01T13:10:50.941Z,100179.00
2023-03-01T13:12:58.976Z,100190.00
2023-03-01T13:14:48.102Z,100186.00
2023-03-01T13:16:46.232Z,100173.00
2023-03-01T13:18:33.087Z,100180.00
2023-03-01T13:20:17.871Z,100175.00
2023-03-01T13:21:55.089Z,100178.00
2023-03-01T13:23:33.462Z,100174.00
2023-03-01T13:25:19.111Z,100166.00
2023-03-01T13:27:26.071Z,100170.00
2023-03-01T13:29:02.019Z,100170.00
2023-03-01T13:30:44.308Z,100177.00
2023-03-01T13:32:42.683Z,100180.00
2023-03-01T13:34:43.956Z,100173.00
2023-03-01T13:36:48.605Z,100176.00
2023-03-01T13:38:48.857Z,100179.00
2023-03-01T13:41:00.937Z,100178.00
2023-03-01T13:42:39.574Z,100173.00
2023-03-01T13:44:20.893Z,100160.00
2023-03-01T13:45:54.474Z,100174.00
2023-03-01T13:47:29.953Z,100167.00
2023-03-01T13:49:03.216Z,100172.00
2023-03-01T13:50:46.980Z,100166.00
2023-03-01T13:52:42.675Z,100162.00
2023-03-01T13:54:18.391Z,100167.00
2023-03-01T13:55:59.345Z,100162.00
2023-03-01T13:57:40.022Z,100151.00
2023-03-01T13:59:18.457Z,100150.00
2023-03-01T14:01:01.213Z,100160.00
2023-03-01T14:02:37.448Z,100149.00
2023-03-01T14:04:23.876Z,100145.00
2023-03-01T14:06:14.511Z,100153.00
2023-03-01T14:07:53.981Z,100148.00
2023-03-01T14:09:33.483Z,100152.00
2023-03-01T14:12:00.829Z,100147.00
2023-03-01T14:13:56.666Z,100156.00
2023-03-01T14:15:36.607Z,100153.00
2023-03-01T14:17:46.285Z,100168.00
2023-03-01T14:19:33.273Z,100157.00
2023-03-01T14:21:10.477Z,100145.00
2023-03-01T14:22:45.872Z,100152.00
2023-03-01T14:24:23.404Z,100144.00
2023-03-01T14:25:59.334Z,100150.00
2023-03-01T14:27:40.350Z,100131.00
2023-03-01T14:29:27.621Z,100138.00
2023-03-01T14:31:03.422Z,100135.00
2023-03-01T14:32:37.486Z,100130.00
2023-03-01T14:34:22.889Z,100127.00
2023-03-01T14:36:02.709Z,100116.00
2023-03-01T14:37:37.006Z,100107.00
2023-03-01T14:39:20.392Z,100112.00
2023-03-01T14:41:00.352Z,100122.00
2023-03-01T14:42:38.409Z,100114.00
2023-03-01T14:44:21.436Z,100114.00
2023-03-01T14:45:54.986Z,100106.00
2023-03-01T14:47:33.859Z,100109.00
2023-03-01T14:49:14.859Z,100117.00
2023-03-01T14:50:52.095Z,100105.00
2023-03-01T14:52:37.236Z,100109.00
2023-03-01T14:54:24.355Z,100092.00
2023-03-01T14:56:03.130Z,100091.00
2023-03-01T14:57:36.467Z,100102.00
2023-03-01T14:59:11.634Z,100105.00
2023-03-01T15:00:53.458Z,100099.00
2023-03-01T15:02:29.502Z,100091.00
2023-03-01T15:04:04.758Z,100095.00
2023-03-01T15:05:39.265Z,100096.00
2023-03-01T15:07:16.054Z,100088.00
2023-03-01T15:08:52.480Z,100081.00
2023-03-01T15:10:30.735Z,100086.00
2023-03-01T15:12:42.365Z,100087.00
2023-03-01T15:14:47.377Z,100098.00
2023-03-01T15:16:27.456Z,100090.00
2023-03-01T15:18:03.991Z,100073.00
2023-03-01T15:19:38.172Z,100073.00
2023-03-01T15:21:19.184Z,100068.00
2023-03-01T15:22:54.087Z,100074.00
2023-03-01T15:24:29.795Z,100068.00
2023-03-01T15:26:04.474Z,100075.00
2023-03-01T15:27:37.873Z,100064.00
2023-03-01T15:29:20.076Z,100068.00
2023-03-01T15:31:01.200Z,100069.00
2023-03-01T15:32:37.628Z,100065.00
2023-03-01T15:34:24.496Z,100069.00
2023-03-01T15:35:59.862Z,100064.00
2023-03-01T15:37:48.422Z,100066.00
2023-03-01T15:39:44.068Z,100058.00
2023-03-01T15:41:26.853Z,100064.00
2023-03-01T15:43:00.545Z,100060.00
2023-03-01T15:44:43.790Z,100055.00
2023-03-01T15:46:26.147Z,100060.00
2023-03-01T15:48:02.854Z,100058.00
2023-03-01T15:49:53.986Z,100062.00
2023-03-01T15:51:36.296Z,100059.00
2023-03-01T15:53:15.518Z,100049.00
2023-03-01T15:54:50.090Z,100050.00
2023-03-01T15:56:23.925Z,100050.00
2023-03-01T15:58:02.944Z,100064.00
2023-03-01T15:59:41.437Z,100043.00
2023-03-01T16:01:21.755Z,100050.00
2023-03-01T16:03:02.491Z,100044.00
2023-03-01T16:04:36.477Z,100058.00
2023-03-01T16:06:15.955Z,100057.00
2023-03-01T16:07:59.129Z,100067.00
2023-03-01T16:09:39.052Z,100050.00
2023-03-01T16:11:27.439Z,100045.00
2023-03-01T16:13:05.503Z,100050.00
2023-03-01T16:14:55.299Z,100044.00
2023-03-01T16:16:38.228Z,100044.00
2023-03-01T16:18:23.838Z,100044.00
2023-03-01T16:20:19.658Z,100049.00
2023-03-01T16:22:02.328Z,100052.00
2023-03-01T16:23:40.454Z,100037.00
2023-03-01T16:25:23.620Z,100052.00
2023-03-01T16:27:04.801Z,100052.00
2023-03-01T16:28:49.788Z,100047.00
2023-03-01T16:30:43.586Z,100047.00
2023-03-01T16:32:27.903Z,100046.00
2023-03-01T16:34:14.096Z,100047.00
2023-03-01T16:35:51.891Z,100044.00
2023-03-01T16:37:26.757Z,100059.00
2023-03-01T16:39:04.243Z,100052.00
2023-03-01T16:40:38.283Z,100060.00
2023-03-01T16:42:14.032Z,100063.00
2023-03-01T16:43:49.193Z,100065.00
2023-03-01T16:45:25.188Z,100065.00
2023-03-01T16:46:59.556Z,100063.00
2023-03-01T16:48:33.654Z,100064.00
2023-03-01T16:50:08.012Z,100056.00
2023-03-01T16:51:42.160Z,100066.00
2023-03-01T16:53:17.314Z,100058.00
2023-03-01T16:54:52.102Z,100051.00
2023-03-01T16:56:27.087Z,100050.00
2023-03-01T16:58:03.150Z,100054.00
2023-03-01T16:59:38.321Z,100056.00
2023-03-01T17:01:15.474Z,100058.00
2023-03-01T17:02:49.828Z,100068.00
2023-03-01T17:04:24.107Z,100062.00
2023-03-01T17:05:58.066Z,100075.00
2023-03-01T17:07:34.242Z,100066.00
2023-03-01T17:09:08.198Z,100056.00
2023-03-01T17:10:43.087Z,100075.00
2023-03-01T17:12:18.202Z,100066.00
2023-03-01T17:13:53.921Z,100057.00
2023-03-01T17:15:28.402Z,100061.00
2023-03-01T17:17:03.688Z,100063.00
2023-03-01T17:18:39.002Z,100066.00
2023-03-01T17:20:14.620Z,100074.00
2023-03-01T17:21:48.878Z,100077.00
2023-03-01T17:23:23.144Z,100087.00
2023-03-01T17:24:56.608Z,100086.00
2023-03-01T17:26:31.402Z,100083.00
2023-03-01T17:28:04.933Z,100083.00
2023-03-01T17:29:40.252Z,100081.00
2023-03-01T17:31:13.362Z,100091.00
2023-03-01T17:32:46.793Z,100096.00
2023-03-01T17:34:32.506Z,100080.00
2023-03-01T17:36:11.376Z,100090.00
2023-03-01T17:37:46.763Z,100090.00
2023-03-01T17:39:32.562Z,100098.00
2023-03-01T17:41:07.780Z,100098.00
2023-03-01T17:42:50.288Z,100095.00
2023-03-01T17:44:35.661Z,100093.00
2023-03-01T17:46:16.190Z,100086.00
2023-03-01T17:47:58.119Z,100085.00
2023-03-01T17:49:44.026Z,100095.00
2023-03-01T17:51:25.416Z,100095.00
2023-03-01T17:53:15.887Z,100098.00
2023-03-01T17:54:57.059Z,100092.00
2023-03-01T17:56:45.119Z,100101.00
2023-03-01T17:58:22.853Z,100097.00
2023-03-01T17:59:56.282Z,100091.00
2023-03-01T18:01:31.131Z,100101.00
2023-03-01T18:03:05.094Z,100096.00
2023-03-01T18:04:38.233Z,100106.00
2023-03-01T18:06:18.185Z,100106.00
2023-03-01T18:07:52.547Z,100098.00
2023-03-01T18:09:27.993Z,100099.00
2023-03-01T18:11:01.721Z,100105.00
2023-03-01T18:12:34.990Z,100107.00
2023-03-01T18:14:08.069Z,100106.00
2023-03-01T18:15:41.644Z,100111.00
2023-03-01T18:17:16.195Z,100099.00
2023-03-01T18:18:53.488Z,100106.00
2023-03-01T18:20:27.342Z,100101.00
2023-03-01T18:22:00.597Z,100100.00
2023-03-01T18:23:36.406Z,100102.00
2023-03-01T18:25:10.635Z,100097.00
2023-03-01T18:26:44.289Z,100102.00
2023-03-01T18:28:17.794Z,100092.00
2023-03-01T18:29:51.182Z,100089.00
2023-03-01T18:31:25.313Z,100091.00
2023-03-01T18:32:59.798Z,100092.00
2023-03-01T18:34:33.028Z,100084.00
2023-03-01T18:36:14.659Z,100087.00
2023-03-01T18:37:48.127Z,100079.00
2023-03-01T18:39:21.525Z,100070.00
2023-03-01T18:40:55.090Z,100086.00
2023-03-01T18:42:28.368Z,100070.00
2023-03-01T18:44:03.055Z,100081.00
2023-03-01T18:45:36.273Z,100083.00
2023-03-01T18:47:09.592Z,100088.00